sensor_id;sensor_type;location;lat;lon;timestamp;pressure;altitude;pressure_sealevel;temperature;humidity
71774;BME280;59607;52.130;5.430;2024-01-30T00:00:25;102678.31;;;6.96;100.00
71774;BME280;59607;52.130;5.430;2024-01-30T00:02:51;102675.06;;;6.93;100.00
71774;BME280;59607;52.130;5.430;2024-01-30T00:05:18;102679.53;;;6.90;100.00
71774;BME280;59607;52.130;5.430;2024-01-30T00:07:48;102682.16;;;6.90;100.00
71774;BME280;59607;52.130;5.430;2024-01-30T00:10:14;102674.41;;;6.89;100.00
71774;BME280;59607;52.130;5.430;2024-01-30T00:12:47;102683.25;;;6.86;100.00
71774;BME280;59607;52.130;5.430;2024-01-30T00:15:16;102683.34;;;6.85;100.00
71774;BME280;59607;52.130;5.430;2024-01-30T00:17:43;102690.25;;;6.86;100.00
71774;BME280;59607;52.130;5.430;2024-01-30T00:20:26;102678.97;;;6.85;100.00
71774;BME280;59607;52.130;5.430;2024-01-30T00:23:00;102682.50;;;6.84;100.00
71774;BME280;59607;52.130;5.430;2024-01-30T00:25:34;102681.09;;;6.78;100.00
71774;BME280;59607;52.130;5.430;2024-01-30T00:28:05;102683.03;;;6.75;100.00
71774;BME280;59607;52.130;5.430;2024-01-30T00:30:31;102677.91;;;6.73;100.00
71774;BME280;59607;52.130;5.430;2024-01-30T00:33:02;102674.13;;;6.79;100.00
71774;BME280;59607;52.130;5.430;2024-01-30T00:35:29;102676.06;;;6.75;100.00
71774;BME280;59607;52.130;5.430;2024-01-30T00:37:55;102685.50;;;6.78;100.00
71774;BME280;59607;52.130;5.430;2024-01-30T00:40:22;102675.31;;;6.73;100.00
71774;BME280;59607;52.130;5.430;2024-01-30T00:42:48;102671.03;;;6.72;100.00
71774;BME280;59607;52.130;5.430;2024-01-30T00:45:15;102681.19;;;6.77;100.00
71774;BME280;59607;52.130;5.430;2024-01-30T00:47:52;102672.50;;;6.76;100.00
71774;BME280;59607;52.130;5.430;2024-01-30T00:50:19;102671.59;;;6.77;100.00
71774;BME280;59607;52.130;5.430;2024-01-30T00:52:46;102672.59;;;6.75;100.00
71774;BME280;59607;52.130;5.430;2024-01-30T00:55:16;102676.25;;;6.72;100.00
71774;BME280;59607;52.130;5.430;2024-01-30T00:57:43;102669.56;;;6.68;100.00
71774;BME280;59607;52.130;5.430;2024-01-30T01:00:15;102669.16;;;6.60;100.00
71774;BME280;59607;52.130;5.430;2024-01-30T01:02:47;102668.31;;;6.59;100.00
71774;BME280;59607;52.130;5.430;2024-01-30T01:05:24;102665.63;;;6.61;100.00
71774;BME280;59607;52.130;5.430;2024-01-30T01:07:51;102674.38;;;6.60;100.00
71774;BME280;59607;52.130;5.430;2024-01-30T01:10:20;102674.75;;;6.53;100.00
71774;BME280;59607;52.130;5.430;2024-01-30T01:12:50;102673.13;;;6.51;100.00
71774;BME280;59607;52.130;5.430;2024-01-30T01:15:22;102671.38;;;6.51;100.00
71774;BME280;59607;52.130;5.430;2024-01-30T01:17:54;102666.91;;;6.53;100.00
71774;BME280;59607;52.130;5.430;2024-01-30T01:20:20;102667.25;;;6.47;100.00
71774;BME280;59607;52.130;5.430;2024-01-30T01:22:53;102660.38;;;6.46;100.00
71774;BME280;59607;52.130;5.430;2024-01-30T01:25:22;102651.88;;;6.42;100.00
71774;BME280;59607;52.130;5.430;2024-01-30T01:28:02;102649.00;;;6.47;100.00
71774;BME280;59607;52.130;5.430;2024-01-30T01:30:38;102642.13;;;6.46;100.00
71774;BME280;59607;52.130;5.430;2024-01-30T01:33:05;102629.00;;;6.48;100.00
71774;BME280;59607;52.130;5.430;2024-01-30T01:35:49;102643.69;;;6.49;100.00
71774;BME280;59607;52.130;5.430;2024-01-30T01:38:30;102638.75;;;6.44;100.00
71774;BME280;59607;52.130;5.430;2024-01-30T01:41:10;102637.28;;;6.40;100.00
71774;BME280;59607;52.130;5.430;2024-01-30T01:43:40;102639.22;;;6.36;100.00
71774;BME280;59607;52.130;5.430;2024-01-30T01:46:14;102646.28;;;6.34;100.00
71774;BME280;59607;52.130;5.430;2024-01-30T01:48:42;102634.09;;;6.35;100.00
71774;BME280;59607;52.130;5.430;2024-01-30T01:51:17;102653.19;;;6.35;100.00
71774;BME280;59607;52.130;5.430;2024-01-30T01:53:46;102646.28;;;6.34;100.00
71774;BME280;59607;52.130;5.430;2024-01-30T01:56:16;102648.97;;;6.33;100.00
71774;BME280;59607;52.130;5.430;2024-01-30T01:58:45;102642.19;;;6.30;100.00
71774;BME280;59607;52.130;5.430;2024-01-30T02:01:16;102638.41;;;6.36;100.00
71774;BME280;59607;52.130;5.430;2024-01-30T02:03:45;102646.22;;;6.36;100.00
71774;BME280;59607;52.130;5.430;2024-01-30T02:06:18;102639.50;;;6.32;100.00
71774;BME280;59607;52.130;5.430;2024-01-30T02:08:45;102638.09;;;6.26;100.00
71774;BME280;59607;52.130;5.430;2024-01-30T02:11:22;102632.97;;;6.24;100.00
71774;BME280;59607;52.130;5.430;2024-01-30T02:13:49;102637.16;;;6.27;100.00
71774;BME280;59607;52.130;5.430;2024-01-30T02:16:19;102632.72;;;6.29;100.00
71774;BME280;59607;52.130;5.430;2024-01-30T02:18:49;102624.97;;;6.27;100.00
71774;BME280;59607;52.130;5.430;2024-01-30T02:21:16;102630.72;;;6.33;100.00
71774;BME280;59607;52.130;5.430;2024-01-30T02:23:50;102633.53;;;6.29;100.00
71774;BME280;59607;52.130;5.430;2024-01-30T02:26:20;102631.84;;;6.28;100.00
71774;BME280;59607;52.130;5.430;2024-01-30T02:28:52;102635.13;;;6.32;100.00
71774;BME280;59607;52.130;5.430;2024-01-30T02:31:18;102633.25;;;6.34;100.00
71774;BME280;59607;52.130;5.430;2024-01-30T02:33:48;102641.81;;;6.36;100.00
71774;BME280;59607;52.130;5.430;2024-01-30T02:36:15;102636.44;;;6.39;100.00
71774;BME280;59607;52.130;5.430;2024-01-30T02:38:41;102641.56;;;6.41;100.00
71774;BME280;59607;52.130;5.430;2024-01-30T02:41:08;102638.13;;;6.40;100.00
71774;BME280;59607;52.130;5.430;2024-01-30T02:43:43;102634.59;;;6.41;100.00
71774;BME280;59607;52.130;5.430;2024-01-30T02:46:15;102631.03;;;6.42;100.00
71774;BME280;59607;52.130;5.430;2024-01-30T02:48:46;102641.47;;;6.42;100.00
71774;BME280;59607;52.130;5.430;2024-01-30T02:51:13;102634.59;;;6.41;100.00
71774;BME280;59607;52.130;5.430;2024-01-30T02:53:39;102623.13;;;6.44;100.00
71774;BME280;59607;52.130;5.430;2024-01-30T02:56:06;102615.97;;;6.48;100.00
71774;BME280;59607;52.130;5.430;2024-01-30T02:58:37;102616.53;;;6.53;100.00
71774;BME280;59607;52.130;5.430;2024-01-30T03:01:08;102614.88;;;6.52;100.00
71774;BME280;59607;52.130;5.430;2024-01-30T03:03:35;102610.28;;;6.56;100.00
71774;BME280;59607;52.130;5.430;2024-01-30T03:06:08;102604.25;;;6.55;100.00
71774;BME280;59607;52.130;5.430;2024-01-30T03:08:39;102613.38;;;6.48;100.00
71774;BME280;59607;52.130;5.430;2024-01-30T03:11:08;102603.13;;;6.45;100.00
71774;BME280;59607;52.130;5.430;2024-01-30T03:13:38;102611.13;;;6.41;100.00
71774;BME280;59607;52.130;5.430;2024-01-30T03:16:08;102604.78;;;6.46;100.00
71774;BME280;59607;52.130;5.430;2024-01-30T03:18:40;102596.97;;;6.46;100.00
71774;BME280;59607;52.130;5.430;2024-01-30T03:21:07;102592.78;;;6.43;100.00
71774;BME280;59607;52.130;5.430;2024-01-30T03:23:33;102582.94;;;6.48;100.00
71774;BME280;59607;52.130;5.430;2024-01-30T03:26:04;102586.28;;;6.50;100.00
71774;BME280;59607;52.130;5.430;2024-01-30T03:28:34;102579.47;;;6.48;100.00
71774;BME280;59607;52.130;5.430;2024-01-30T03:31:03;102594.16;;;6.49;100.00
71774;BME280;59607;52.130;5.430;2024-01-30T03:33:33;102592.41;;;6.49;100.00
71774;BME280;59607;52.130;5.430;2024-01-30T03:36:04;102587.97;;;6.51;100.00
71774;BME280;59607;52.130;5.430;2024-01-30T03:38:31;102587.88;;;6.53;100.00
71774;BME280;59607;52.130;5.430;2024-01-30T03:40:59;102585.25;;;6.53;100.00
71774;BME280;59607;52.130;5.430;2024-01-30T03:43:30;102579.09;;;6.54;100.00
71774;BME280;59607;52.130;5.430;2024-01-30T03:46:02;102581.34;;;6.60;100.00
71774;BME280;59607;52.130;5.430;2024-01-30T03:48:45;102578.53;;;6.63;100.00
71774;BME280;59607;52.130;5.430;2024-01-30T03:51:18;102575.88;;;6.65;100.00
71774;BME280;59607;52.130;5.430;2024-01-30T03:53:45;102570.47;;;6.68;100.00
71774;BME280;59607;52.130;5.430;2024-01-30T03:56:12;102570.19;;;6.73;100.00
71774;BME280;59607;52.130;5.430;2024-01-30T03:58:43;102567.19;;;6.79;100.00
71774;BME280;59607;52.130;5.430;2024-01-30T04:01:13;102561.50;;;6.87;100.00
71774;BME280;59607;52.130;5.430;2024-01-30T04:03:45;102568.19;;;6.91;100.00
71774;BME280;59607;52.130;5.430;2024-01-30T04:06:11;102576.75;;;6.93;100.00
71774;BME280;59607;52.130;5.430;2024-01-30T04:08:43;102568.84;;;6.95;100.00
71774;BME280;59607;52.130;5.430;2024-01-30T04:11:09;102580.97;;;6.96;100.00
71774;BME280;59607;52.130;5.430;2024-01-30T04:13:36;102578.34;;;6.96;100.00
71774;BME280;59607;52.130;5.430;2024-01-30T04:16:02;102576.38;;;6.99;100.00
71774;BME280;59607;52.130;5.430;2024-01-30T04:18:46;102584.09;;;7.01;100.00
71774;BME280;59607;52.130;5.430;2024-01-30T04:21:15;102580.38;;;7.05;100.00
71774;BME280;59607;52.130;5.430;2024-01-30T04:23:42;102582.91;;;7.07;100.00
71774;BME280;59607;52.130;5.430;2024-01-30T04:26:09;102570.59;;;7.09;100.00
71774;BME280;59607;52.130;5.430;2024-01-30T04:28:44;102558.94;;;7.14;100.00
71774;BME280;59607;52.130;5.430;2024-01-30T04:31:14;102561.34;;;7.18;100.00
71774;BME280;59607;52.130;5.430;2024-01-30T04:33:43;102557.69;;;7.20;100.00
71774;BME280;59607;52.130;5.430;2024-01-30T04:36:09;102555.81;;;7.22;100.00
71774;BME280;59607;52.130;5.430;2024-01-30T04:38:42;102553.03;;;7.25;100.00
71774;BME280;59607;52.130;5.430;2024-01-30T04:41:12;102546.13;;;7.24;100.00
71774;BME280;59607;52.130;5.430;2024-01-30T04:43:39;102540.72;;;7.27;100.00
71774;BME280;59607;52.130;5.430;2024-01-30T04:46:12;102545.00;;;7.28;100.00
71774;BME280;59607;52.130;5.430;2024-01-30T04:48:38;102532.78;;;7.29;100.00
71774;BME280;59607;52.130;5.430;2024-01-30T04:51:22;102545.75;;;7.31;100.00
71774;BME280;59607;52.130;5.430;2024-01-30T04:53:56;102545.75;;;7.31;100.00
71774;BME280;59607;52.130;5.430;2024-01-30T04:56:22;102551.72;;;7.33;100.00
71774;BME280;59607;52.130;5.430;2024-01-30T04:58:49;102541.25;;;7.33;100.00
71774;BME280;59607;52.130;5.430;2024-01-30T05:01:21;102543.78;;;7.34;100.00
71774;BME280;59607;52.130;5.430;2024-01-30T05:03:48;102549.66;;;7.38;100.00
71774;BME280;59607;52.130;5.430;2024-01-30T05:06:28;102552.16;;;7.39;100.00
71774;BME280;59607;52.130;5.430;2024-01-30T05:08:58;102544.31;;;7.39;100.00
71774;BME280;59607;52.130;5.430;2024-01-30T05:11:24;102558.00;;;7.43;100.00
71774;BME280;59607;52.130;5.430;2024-01-30T05:13:51;102548.41;;;7.44;100.00
71774;BME280;59607;52.130;5.430;2024-01-30T05:16:23;102549.03;;;7.47;100.00
71774;BME280;59607;52.130;5.430;2024-01-30T05:18:58;102547.25;;;7.48;100.00
71774;BME280;59607;52.130;5.430;2024-01-30T05:21:38;102556.69;;;7.50;100.00
71774;BME280;59607;52.130;5.430;2024-01-30T05:24:08;102544.25;;;7.54;100.00
71774;BME280;59607;52.130;5.430;2024-01-30T05:26:39;102538.00;;;7.57;100.00
71774;BME280;59607;52.130;5.430;2024-01-30T05:29:16;102534.22;;;7.61;100.00
71774;BME280;59607;52.130;5.430;2024-01-30T05:31:43;102527.88;;;7.65;100.00
71774;BME280;59607;52.130;5.430;2024-01-30T05:34:12;102525.06;;;7.68;100.00
71774;BME280;59607;52.130;5.430;2024-01-30T05:36:39;102518.78;;;7.71;100.00
71774;BME280;59607;52.130;5.430;2024-01-30T05:39:05;102516.81;;;7.74;100.00
71774;BME280;59607;52.130;5.430;2024-01-30T05:41:34;102527.91;;;7.78;100.00
71774;BME280;59607;52.130;5.430;2024-01-30T05:44:04;102526.03;;;7.80;100.00
71774;BME280;59607;52.130;5.430;2024-01-30T05:46:31;102542.31;;;7.84;100.00
71774;BME280;59607;52.130;5.430;2024-01-30T05:49:01;102542.22;;;7.85;100.00
71774;BME280;59607;52.130;5.430;2024-01-30T05:51:30;102530.00;;;7.86;100.00
71774;BME280;59607;52.130;5.430;2024-01-30T05:53:57;102528.84;;;7.90;100.00
71774;BME280;59607;52.130;5.430;2024-01-30T05:56:31;102534.19;;;7.88;100.00
71774;BME280;59607;52.130;5.430;2024-01-30T05:58:58;102534.19;;;7.88;100.00
71774;BME280;59607;52.130;5.430;2024-01-30T06:01:27;102539.31;;;7.90;100.00
71774;BME280;59607;52.130;5.430;2024-01-30T06:03:55;102541.00;;;7.91;100.00
71774;BME280;59607;52.130;5.430;2024-01-30T06:06:21;102543.50;;;7.93;100.00
71774;BME280;59607;52.130;5.430;2024-01-30T06:08:49;102544.16;;;7.96;100.00
71774;BME280;59607;52.130;5.430;2024-01-30T06:11:15;102548.41;;;7.97;100.00
71774;BME280;59607;52.130;5.430;2024-01-30T06:13:44;102544.03;;;7.98;100.00
71774;BME280;59607;52.130;5.430;2024-01-30T06:16:11;102542.97;;;8.00;100.00
71774;BME280;59607;52.130;5.430;2024-01-30T06:18:56;102548.31;;;7.99;100.00
71774;BME280;59607;52.130;5.430;2024-01-30T06:21:26;102542.25;;;7.98;100.00
71774;BME280;59607;52.130;5.430;2024-01-30T06:23:52;102556.06;;;8.00;100.00
71774;BME280;59607;52.130;5.430;2024-01-30T06:26:18;102535.25;;;7.99;100.00
71774;BME280;59607;52.130;5.430;2024-01-30T06:28:45;102535.25;;;7.99;100.00
71774;BME280;59607;52.130;5.430;2024-01-30T06:31:15;102530.03;;;7.99;100.00
71774;BME280;59607;52.130;5.430;2024-01-30T06:33:42;102536.81;;;8.01;100.00
71774;BME280;59607;52.130;5.430;2024-01-30T06:36:14;102543.84;;;8.01;100.00
71774;BME280;59607;52.130;5.430;2024-01-30T06:38:41;102545.50;;;8.02;100.00
71774;BME280;59607;52.130;5.430;2024-01-30T06:41:10;102551.56;;;8.02;100.00
71774;BME280;59607;52.130;5.430;2024-01-30T06:43:40;102547.16;;;8.03;100.00
71774;BME280;59607;52.130;5.430;2024-01-30T06:46:06;102550.63;;;8.03;100.00
71774;BME280;59607;52.130;5.430;2024-01-30T06:48:38;102550.72;;;8.02;100.00
71774;BME280;59607;52.130;5.430;2024-01-30T06:51:07;102549.88;;;8.01;100.00
71774;BME280;59607;52.130;5.430;2024-01-30T06:53:33;102561.28;;;8.00;100.00
71774;BME280;59607;52.130;5.430;2024-01-30T06:56:05;102547.16;;;8.03;100.00
71774;BME280;59607;52.130;5.430;2024-01-30T06:58:32;102555.75;;;8.05;100.00
71774;BME280;59607;52.130;5.430;2024-01-30T07:00:59;102555.75;;;8.05;100.00
71774;BME280;59607;52.130;5.430;2024-01-30T07:03:31;102552.28;;;8.05;100.00
71774;BME280;59607;52.130;5.430;2024-01-30T07:05:58;102555.63;;;8.07;100.00
71774;BME280;59607;52.130;5.430;2024-01-30T07:08:29;102566.09;;;8.07;100.00
71774;BME280;59607;52.130;5.430;2024-01-30T07:10:59;102554.78;;;8.06;100.00
71774;BME280;59607;52.130;5.430;2024-01-30T07:13:27;102546.94;;;8.06;100.00
71774;BME280;59607;52.130;5.430;2024-01-30T07:15:57;102557.41;;;8.06;100.00
71774;BME280;59607;52.130;5.430;2024-01-30T07:18:24;102562.63;;;8.06;100.00
71774;BME280;59607;52.130;5.430;2024-01-30T07:20:50;102563.47;;;8.07;100.00
71774;BME280;59607;52.130;5.430;2024-01-30T07:23:23;102558.25;;;8.07;100.00
71774;BME280;59607;52.130;5.430;2024-01-30T07:25:49;102569.44;;;8.09;100.00
71774;BME280;59607;52.130;5.430;2024-01-30T07:28:19;102567.56;;;8.11;100.00
71774;BME280;59607;52.130;5.430;2024-01-30T07:30:46;102569.13;;;8.13;100.00
71774;BME280;59607;52.130;5.430;2024-01-30T07:33:14;102573.31;;;8.16;100.00
71774;BME280;59607;52.130;5.430;2024-01-30T07:35:52;102578.44;;;8.18;100.00
71774;BME280;59607;52.130;5.430;2024-01-30T07:38:19;102578.31;;;8.19;100.00
71774;BME280;59607;52.130;5.430;2024-01-30T07:40:51;102573.84;;;8.21;100.00
71774;BME280;59607;52.130;5.430;2024-01-30T07:43:18;102583.88;;;8.27;100.00
71774;BME280;59607;52.130;5.430;2024-01-30T07:45:47;102587.13;;;8.31;100.00
71774;BME280;59607;52.130;5.430;2024-01-30T07:48:17;102583.34;;;8.35;100.00
71774;BME280;59607;52.130;5.430;2024-01-30T07:50:44;102581.59;;;8.36;100.00
71774;BME280;59607;52.130;5.430;2024-01-30T07:53:11;102590.06;;;8.39;100.00
71774;BME280;59607;52.130;5.430;2024-01-30T07:55:40;102592.34;;;8.44;100.00
71774;BME280;59607;52.130;5.430;2024-01-30T07:58:07;102593.91;;;8.47;100.00
71774;BME280;59607;52.130;5.430;2024-01-30T08:00:36;102601.53;;;8.50;100.00
71774;BME280;59607;52.130;5.430;2024-01-30T08:03:08;102593.53;;;8.53;100.00
71774;BME280;59607;52.130;5.430;2024-01-30T08:05:41;102588.81;;;8.58;100.00
71774;BME280;59607;52.130;5.430;2024-01-30T08:08:12;102598.97;;;8.63;100.00
71774;BME280;59607;52.130;5.430;2024-01-30T08:10:38;102600.31;;;8.69;100.00
71774;BME280;59607;52.130;5.430;2024-01-30T08:13:22;102608.59;;;8.75;100.00
71774;BME280;59607;52.130;5.430;2024-01-30T08:15:52;102602.19;;;8.80;100.00
71774;BME280;59607;52.130;5.430;2024-01-30T08:18:18;102603.66;;;8.84;100.00
71774;BME280;59607;52.130;5.430;2024-01-30T08:20:45;102598.09;;;8.88;100.00
71774;BME280;59607;52.130;5.430;2024-01-30T08:23:17;102589.94;;;8.93;100.00
71774;BME280;59607;52.130;5.430;2024-01-30T08:25:43;102596.50;;;8.99;100.00
71774;BME280;59607;52.130;5.430;2024-01-30T08:28:16;102598.78;;;9.04;100.00
71774;BME280;59607;52.130;5.430;2024-01-30T08:30:47;102605.59;;;9.06;100.00
71774;BME280;59607;52.130;5.430;2024-01-30T08:33:17;102606.94;;;9.12;100.00
71774;BME280;59607;52.130;5.430;2024-01-30T08:35:48;102596.25;;;9.15;100.00
71774;BME280;59607;52.130;5.430;2024-01-30T08:38:15;102602.84;;;9.21;100.00
71774;BME280;59607;52.130;5.430;2024-01-30T08:40:42;102600.63;;;9.28;100.00
71774;BME280;59607;52.130;5.430;2024-01-30T08:43:11;102596.72;;;9.33;100.00
71774;BME280;59607;52.130;5.430;2024-01-30T08:45:39;102593.75;;;9.38;100.00
71774;BME280;59607;52.130;5.430;2024-01-30T08:48:13;102594.06;;;9.46;100.00
71774;BME280;59607;52.130;5.430;2024-01-30T08:50:39;102600.53;;;9.54;100.00
71774;BME280;59607;52.130;5.430;2024-01-30T08:53:08;102593.25;;;9.57;100.00
71774;BME280;59607;52.130;5.430;2024-01-30T08:55:35;102591.03;;;9.64;100.00
71774;BME280;59607;52.130;5.430;2024-01-30T08:58:01;102600.25;;;9.70;100.00
71774;BME280;59607;52.130;5.430;2024-01-30T09:00:34;102597.84;;;9.78;100.00
71774;BME280;59607;52.130;5.430;2024-01-30T09:03:03;102609.69;;;9.84;100.00
71774;BME280;59607;52.130;5.430;2024-01-30T09:05:30;102608.28;;;9.91;100.00
71774;BME280;59607;52.130;5.430;2024-01-30T09:07:58;102605.00;;;10.00;100.00
71774;BME280;59607;52.130;5.430;2024-01-30T09:10:29;102598.81;;;10.13;100.00
71774;BME280;59607;52.130;5.430;2024-01-30T09:13:01;102595.25;;;10.25;100.00
71774;BME280;59607;52.130;5.430;2024-01-30T09:15:30;102594.44;;;10.36;100.00
71774;BME280;59607;52.130;5.430;2024-01-30T09:17:57;102600.44;;;10.50;100.00
71774;BME280;59607;52.130;5.430;2024-01-30T09:20:23;102596.28;;;10.59;100.00
71774;BME280;59607;52.130;5.430;2024-01-30T09:22:53;102607.22;;;10.64;100.00
71774;BME280;59607;52.130;5.430;2024-01-30T09:25:19;102611.44;;;10.67;100.00
71774;BME280;59607;52.130;5.430;2024-01-30T09:27:53;102615.84;;;10.66;100.00
71774;BME280;59607;52.130;5.430;2024-01-30T09:30:20;102618.56;;;10.65;100.00
71774;BME280;59607;52.130;5.430;2024-01-30T09:32:52;102621.06;;;10.66;100.00
71774;BME280;59607;52.130;5.430;2024-01-30T09:35:28;102614.16;;;10.65;100.00
71774;BME280;59607;52.130;5.430;2024-01-30T09:37:59;102618.47;;;10.66;100.00
71774;BME280;59607;52.130;5.430;2024-01-30T09:40:26;102612.28;;;10.67;100.00
71774;BME280;59607;52.130;5.430;2024-01-30T09:42:59;102623.47;;;10.69;100.00
71774;BME280;59607;52.130;5.430;2024-01-30T09:45:35;102612.03;;;10.70;100.00
71774;BME280;59607;52.130;5.430;2024-01-30T09:48:07;102621.56;;;10.71;100.00
71774;BME280;59607;52.130;5.430;2024-01-30T09:50:34;102628.22;;;10.76;100.00
71774;BME280;59607;52.130;5.430;2024-01-30T09:53:08;102629.06;;;10.76;100.00
71774;BME280;59607;52.130;5.430;2024-01-30T09:55:35;102631.59;;;10.78;100.00
71774;BME280;59607;52.130;5.430;2024-01-30T09:58:06;102633.25;;;10.79;100.00
71774;BME280;59607;52.130;5.430;2024-01-30T10:00:33;102628.72;;;10.81;100.00
71774;BME280;59607;52.130;5.430;2024-01-30T10:02:59;102627.66;;;10.83;100.00
71774;BME280;59607;52.130;5.430;2024-01-30T10:05:36;102629.31;;;10.84;100.00
71774;BME280;59607;52.130;5.430;2024-01-30T10:08:07;102630.16;;;10.85;100.00
71774;BME280;59607;52.130;5.430;2024-01-30T10:10:39;102630.97;;;10.85;100.00
71774;BME280;59607;52.130;5.430;2024-01-30T10:13:05;102627.41;;;10.86;100.00
71774;BME280;59607;52.130;5.430;2024-01-30T10:15:32;102627.28;;;10.88;100.00
71774;BME280;59607;52.130;5.430;2024-01-30T10:17:58;102634.19;;;10.89;100.00
71774;BME280;59607;52.130;5.430;2024-01-30T10:20:28;102633.13;;;10.92;100.00
71774;BME280;59607;52.130;5.430;2024-01-30T10:22:56;102646.59;;;10.98;100.00
71774;BME280;59607;52.130;5.430;2024-01-30T10:25:28;102634.91;;;11.03;100.00
71774;BME280;59607;52.130;5.430;2024-01-30T10:27:54;102630.13;;;11.08;100.00
71774;BME280;59607;52.130;5.430;2024-01-30T10:30:25;102632.97;;;11.16;100.00
71774;BME280;59607;52.130;5.430;2024-01-30T10:32:51;102628.66;;;11.27;100.00
71774;BME280;59607;52.130;5.430;2024-01-30T10:35:18;102636.53;;;11.38;100.00
71774;BME280;59607;52.130;5.430;2024-01-30T10:37:56;102649.16;;;11.44;100.00
71774;BME280;59607;52.130;5.430;2024-01-30T10:40:27;102636.63;;;11.48;100.00
71774;BME280;59607;52.130;5.430;2024-01-30T10:43:00;102622.41;;;11.51;100.00
71774;BME280;59607;52.130;5.430;2024-01-30T10:45:34;102610.34;;;11.48;100.00
71774;BME280;59607;52.130;5.430;2024-01-30T10:48:05;102631.63;;;11.45;100.00
71774;BME280;59607;52.130;5.430;2024-01-30T10:50:34;102640.56;;;11.42;100.00
71774;BME280;59607;52.130;5.430;2024-01-30T10:53:10;102639.41;;;11.35;100.00
71774;BME280;59607;52.130;5.430;2024-01-30T10:55:47;102638.69;;;11.33;100.00
71774;BME280;59607;52.130;5.430;2024-01-30T10:58:15;102643.34;;;11.29;100.00
71774;BME280;59607;52.130;5.430;2024-01-30T11:00:48;102634.16;;;11.35;100.00
71774;BME280;59607;52.130;5.430;2024-01-30T11:03:17;102642.38;;;11.42;100.00
71774;BME280;59607;52.130;5.430;2024-01-30T11:05:52;102647.38;;;11.45;100.00
71774;BME280;59607;52.130;5.430;2024-01-30T11:08:25;102618.22;;;11.48;100.00
71774;BME280;59607;52.130;5.430;2024-01-30T11:10:58;102653.09;;;11.50;100.00
71774;BME280;59607;52.130;5.430;2024-01-30T11:13:37;102647.69;;;11.52;100.00
71774;BME280;59607;52.130;5.430;2024-01-30T11:16:05;102646.50;;;11.56;100.00
71774;BME280;59607;52.130;5.430;2024-01-30T11:18:40;102642.72;;;11.81;100.00
71774;BME280;59607;52.130;5.430;2024-01-30T11:21:14;102648.94;;;11.80;100.00
71774;BME280;59607;52.130;5.430;2024-01-30T11:23:42;102648.22;;;11.78;100.00
71774;BME280;59607;52.130;5.430;2024-01-30T11:26:15;102651.56;;;11.80;100.00
71774;BME280;59607;52.130;5.430;2024-01-30T11:28:56;102647.00;;;11.82;100.00
71774;BME280;59607;52.130;5.430;2024-01-30T11:31:26;102654.69;;;11.74;100.00
71774;BME280;59607;52.130;5.430;2024-01-30T11:33:52;102660.56;;;11.66;100.00
71774;BME280;59607;52.130;5.430;2024-01-30T11:36:25;102663.13;;;11.56;100.00
71774;BME280;59607;52.130;5.430;2024-01-30T11:38:56;102667.31;;;11.47;100.00
71774;BME280;59607;52.130;5.430;2024-01-30T11:41:23;102668.66;;;11.42;100.00
71774;BME280;59607;52.130;5.430;2024-01-30T11:43:53;102673.56;;;11.23;100.00
71774;BME280;59607;52.130;5.430;2024-01-30T11:46:19;102668.81;;;11.17;100.00
71774;BME280;59607;52.130;5.430;2024-01-30T11:48:46;102671.91;;;11.11;100.00
71774;BME280;59607;52.130;5.430;2024-01-30T11:51:27;102682.53;;;11.09;100.00
71774;BME280;59607;52.130;5.430;2024-01-30T11:54:07;102681.94;;;11.06;100.00
71774;BME280;59607;52.130;5.430;2024-01-30T11:56:42;102684.81;;;11.03;100.00
71774;BME280;59607;52.130;5.430;2024-01-30T11:59:09;102679.44;;;10.93;100.00
71774;BME280;59607;52.130;5.430;2024-01-30T12:01:39;102680.97;;;10.84;100.00
71774;BME280;59607;52.130;5.430;2024-01-30T12:04:09;102686.34;;;10.82;100.00
71774;BME280;59607;52.130;5.430;2024-01-30T12:06:38;102685.63;;;10.80;100.00
71774;BME280;59607;52.130;5.430;2024-01-30T12:09:09;102695.31;;;10.80;100.00
71774;BME280;59607;52.130;5.430;2024-01-30T12:11:51;102697.66;;;10.71;100.00
71774;BME280;59607;52.130;5.430;2024-01-30T12:14:18;102692.44;;;10.71;100.00
71774;BME280;59607;52.130;5.430;2024-01-30T12:17:01;102691.09;;;10.66;100.00
71774;BME280;59607;52.130;5.430;2024-01-30T12:19:45;102701.00;;;10.62;100.00
71774;BME280;59607;52.130;5.430;2024-01-30T12:22:16;102703.03;;;10.58;100.00
71774;BME280;59607;52.130;5.430;2024-01-30T12:24:43;102695.03;;;10.60;100.00
71774;BME280;59607;52.130;5.430;2024-01-30T12:27:15;102714.09;;;10.51;100.00
71774;BME280;59607;52.130;5.430;2024-01-30T12:29:45;102728.81;;;10.40;100.00
71774;BME280;59607;52.130;5.430;2024-01-30T12:32:17;102735.31;;;10.23;100.00
71774;BME280;59607;52.130;5.430;2024-01-30T12:34:46;102753.63;;;10.11;100.00
71774;BME280;59607;52.130;5.430;2024-01-30T12:37:27;102754.19;;;10.04;100.00
71774;BME280;59607;52.130;5.430;2024-01-30T12:39:56;102748.44;;;9.98;100.00
71774;BME280;59607;52.130;5.430;2024-01-30T12:42:29;102750.66;;;9.92;100.00
71774;BME280;59607;52.130;5.430;2024-01-30T12:44:57;102747.53;;;9.86;100.00
71774;BME280;59607;52.130;5.430;2024-01-30T12:47:31;102730.81;;;9.76;100.00
71774;BME280;59607;52.130;5.430;2024-01-30T12:49:58;102734.34;;;9.75;100.00
71774;BME280;59607;52.130;5.430;2024-01-30T12:52:29;102734.47;;;9.73;100.00
71774;BME280;59607;52.130;5.430;2024-01-30T12:54:59;102743.81;;;9.78;100.00
71774;BME280;59607;52.130;5.430;2024-01-30T12:57:32;102744.19;;;9.84;100.00
71774;BME280;59607;52.130;5.430;2024-01-30T13:00:01;102743.34;;;9.84;100.00
71774;BME280;59607;52.130;5.430;2024-01-30T13:02:31;102746.09;;;9.82;100.00